createdAt,value
2023-04-22T00:00:34.308Z,5.60
2023-04-22T00:03:39.324Z,5.20
2023-04-22T00:06:43.003Z,5.43
2023-04-22T00:09:47.176Z,5.80
2023-04-22T00:12:50.684Z,5.07
2023-04-22T00:15:55.809Z,5.30
2023-04-22T00:18:59.350Z,5.30
2023-04-22T00:22:03.070Z,5.20
2023-04-22T00:25:07.557Z,9.03
2023-04-22T00:28:11.375Z,8.10
2023-04-22T00:31:16.483Z,8.67
2023-04-22T00:34:20.061Z,11.07
2023-04-22T00:37:23.674Z,14.10
2023-04-22T00:40:27.129Z,14.97
2023-04-22T00:43:30.901Z,14.93
2023-04-22T00:46:36.099Z,14.57
2023-04-22T00:49:40.695Z,15.40
2023-04-22T00:52:44.548Z,14.13
2023-04-22T00:55:48.361Z,12.33
2023-04-22T00:59:29.068Z,13.87
2023-04-22T01:02:35.391Z,14.00
2023-04-22T01:05:39.478Z,14.97
2023-04-22T01:08:43.845Z,14.80
2023-04-22T01:11:48.424Z,14.67
2023-04-22T01:14:52.041Z,14.73
2023-04-22T01:17:58.296Z,14.83
2023-04-22T01:21:02.445Z,15.27
2023-04-22T01:24:08.531Z,13.23
2023-04-22T01:27:13.461Z,12.40
2023-04-22T01:30:18.479Z,13.23
2023-04-22T01:33:22.159Z,12.97
2023-04-22T01:36:26.009Z,13.33
2023-04-22T01:39:32.371Z,13.57
2023-04-22T01:42:36.199Z,12.37
2023-04-22T01:45:39.736Z,12.73
2023-04-22T01:48:43.796Z,12.70
2023-04-22T01:51:47.352Z,11.80
2023-04-22T01:54:53.002Z,12.60
2023-04-22T01:57:56.649Z,10.57
2023-04-22T02:01:00.392Z,11.13
2023-04-22T02:04:04.055Z,10.33
2023-04-22T02:07:07.696Z,10.57
2023-04-22T02:10:16.235Z,9.60
2023-04-22T02:13:20.652Z,9.37
2023-04-22T02:16:25.233Z,9.50
2023-04-22T02:19:28.938Z,8.93
2023-04-22T02:22:33.432Z,9.33
2023-04-22T02:25:39.268Z,10.97
2023-04-22T02:28:43.030Z,10.63
2023-04-22T02:31:46.614Z,10.20
2023-04-22T02:34:50.989Z,10.20
2023-04-22T02:37:56.852Z,10.87
2023-04-22T02:41:04.242Z,10.33
2023-04-22T02:44:07.817Z,10.50
2023-04-22T02:47:11.513Z,10.87
2023-04-22T02:50:17.081Z,10.53
2023-04-22T02:53:20.616Z,10.83
2023-04-22T02:56:26.945Z,10.83
2023-04-22T02:59:30.589Z,11.50
2023-04-22T03:02:34.482Z,11.23
2023-04-22T03:05:43.967Z,10.97
2023-04-22T03:08:47.679Z,11.23
2023-04-22T03:11:52.604Z,11.97
2023-04-22T03:14:56.361Z,12.63
2023-04-22T03:18:02.669Z,11.17
2023-04-22T03:21:06.835Z,12.40
2023-04-22T03:24:10.521Z,11.97
2023-04-22T03:27:21.009Z,13.00
2023-04-22T03:30:24.883Z,12.63
2023-04-22T03:33:30.173Z,12.43
2023-04-22T03:36:40.816Z,12.53
2023-04-22T03:39:44.576Z,11.97
2023-04-22T03:42:49.759Z,11.67
2023-04-22T03:45:56.538Z,12.63
2023-04-22T03:49:03.117Z,12.83
2023-04-22T03:52:10.881Z,13.23
2023-04-22T03:55:19.379Z,12.70
2023-04-22T03:58:25.888Z,9.67
2023-04-22T04:01:30.734Z,10.60
2023-04-22T04:04:38.268Z,9.83
2023-04-22T04:07:44.166Z,11.13
2023-04-22T04:10:47.877Z,13.27
2023-04-22T04:13:54.041Z,12.37
2023-04-22T04:17:03.964Z,11.90
2023-04-22T04:20:11.435Z,10.20
2023-04-22T04:23:16.754Z,9.60
2023-04-22T04:26:22.082Z,9.17
2023-04-22T04:29:31.479Z,8.00
2023-04-22T04:32:47.446Z,8.37
2023-04-22T04:35:54.249Z,7.40
2023-04-22T04:39:04.402Z,7.20
2023-04-22T04:42:09.922Z,7.60
2023-04-22T04:45:24.296Z,7.30
2023-04-22T04:48:29.160Z,7.40
2023-04-22T04:51:39.916Z,6.87
2023-04-22T04:54:44.044Z,7.27
2023-04-22T04:57:48.413Z,7.43
2023-04-22T05:00:53.722Z,7.77
2023-04-22T05:03:58.143Z,7.80
2023-04-22T05:07:02.291Z,7.90
2023-04-22T05:10:08.306Z,7.07
2023-04-22T05:13:12.753Z,8.37
2023-04-22T05:16:22.522Z,8.20
2023-04-22T05:19:26.873Z,7.67
2023-04-22T05:22:31.751Z,7.67
2023-04-22T05:25:35.782Z,7.77
2023-04-22T05:28:45.322Z,8.20
2023-04-22T05:31:50.829Z,8.70
2023-04-22T05:34:54.653Z,9.53
2023-04-22T05:37:58.516Z,8.33
2023-04-22T05:41:02.843Z,8.07
2023-04-22T05:44:07.046Z,7.93
2023-04-22T05:47:12.727Z,7.80
2023-04-22T05:50:16.599Z,7.57
2023-04-22T05:53:32.762Z,6.97
2023-04-22T05:56:38.760Z,6.50
2023-04-22T05:59:42.969Z,6.70
2023-04-22T06:02:48.706Z,6.10
2023-04-22T06:05:52.668Z,5.73
2023-04-22T06:08:56.909Z,6.97
2023-04-22T06:12:02.220Z,6.50
2023-04-22T06:15:08.416Z,6.70
2023-04-22T06:18:14.684Z,6.37
2023-04-22T06:21:18.538Z,6.63
2023-04-22T06:24:24.496Z,7.00
2023-04-22T06:27:28.365Z,6.87
2023-04-22T06:30:32.217Z,6.90
2023-04-22T06:33:37.534Z,8.20
2023-04-22T06:36:41.386Z,7.60
2023-04-22T06:39:45.115Z,6.77
2023-04-22T06:43:07.368Z,6.80
2023-04-22T06:46:29.704Z,6.80
2023-04-22T06:50:08.805Z,7.00
2023-04-22T06:53:16.311Z,7.67
2023-04-22T06:56:20.342Z,7.70
2023-04-22T06:59:24.152Z,7.03
2023-04-22T07:02:28.434Z,6.17
2023-04-22T07:05:33.818Z,5.90
2023-04-22T07:08:39.826Z,6.63
2023-04-22T07:11:44.349Z,6.67
2023-04-22T07:14:55.238Z,7.47
2023-04-22T07:17:59.136Z,6.27
2023-04-22T07:21:04.360Z,6.43
2023-04-22T07:24:12.254Z,7.07
2023-04-22T07:27:16.116Z,6.97
2023-04-22T07:30:19.889Z,6.53
2023-04-22T07:33:23.586Z,7.30
2023-04-22T07:36:28.948Z,7.40
2023-04-22T07:39:32.799Z,7.27
2023-04-22T07:42:38.615Z,8.17
2023-04-22T07:45:42.627Z,10.90
2023-04-22T07:48:46.347Z,20.08
2023-04-22T07:51:53.565Z,10.20
2023-04-22T07:54:57.371Z,5.75
2023-04-22T07:58:03.804Z,5.63
2023-04-22T08:01:07.762Z,5.60
2023-04-22T08:04:11.883Z,6.00
2023-04-22T08:07:32.521Z,6.40
2023-04-22T08:10:37.018Z,8.60
2023-04-22T08:13:40.798Z,6.53
2023-04-22T08:16:45.091Z,16.83
2023-04-22T08:19:49.129Z,12.68
2023-04-22T08:22:58.501Z,5.97
2023-04-22T08:26:02.355Z,7.07
2023-04-22T08:29:06.402Z,6.65
2023-04-22T08:32:10.698Z,8.02
2023-04-22T08:35:14.499Z,7.90
2023-04-22T08:38:20.242Z,15.05
2023-04-22T08:41:25.581Z,6.45
2023-04-22T08:44:30.198Z,5.85
2023-04-22T08:47:34.473Z,5.80
2023-04-22T08:50:40.923Z,6.45
2023-04-22T08:53:46.992Z,5.70
2023-04-22T08:56:52.434Z,6.22
2023-04-22T08:59:57.927Z,6.88
2023-04-22T09:03:03.897Z,8.52
2023-04-22T09:06:09.672Z,6.50
2023-04-22T09:09:15.566Z,9.68
2023-04-22T09:12:19.688Z,7.18
2023-04-22T09:15:23.931Z,6.65
2023-04-22T09:18:27.998Z,6.85
2023-04-22T09:21:35.154Z,6.47
2023-04-22T09:24:44.211Z,7.10
2023-04-22T09:27:52.063Z,8.18
2023-04-22T09:30:55.944Z,9.35
2023-04-22T09:34:02.182Z,7.40
2023-04-22T09:37:07.454Z,7.22
2023-04-22T09:40:17.149Z,7.43
2023-04-22T09:43:21.179Z,7.90
2023-04-22T09:46:26.092Z,6.70
2023-04-22T09:49:30.069Z,6.05
2023-04-22T09:52:34.910Z,5.20
2023-04-22T09:55:41.952Z,5.60
2023-04-22T09:58:46.139Z,5.53
2023-04-22T10:01:51.175Z,4.18
2023-04-22T10:04:55.073Z,3.88
2023-04-22T10:07:58.965Z,3.97
2023-04-22T10:11:04.975Z,4.00
2023-04-22T10:14:10.799Z,3.80
2023-04-22T10:17:15.730Z,3.88
2023-04-22T10:20:21.763Z,3.38
2023-04-22T10:23:26.758Z,3.95
2023-04-22T10:26:49.537Z,4.45
2023-04-22T10:29:53.418Z,5.88
2023-04-22T10:32:57.308Z,5.40
2023-04-22T10:36:09.478Z,3.38
2023-04-22T10:39:19.234Z,3.30
2023-04-22T10:42:24.807Z,4.03
2023-04-22T10:45:28.559Z,20.35
2023-04-22T10:48:50.047Z,9.68
2023-04-22T10:51:55.123Z,6.13
2023-04-22T10:55:01.117Z,5.15
2023-04-22T10:58:21.504Z,5.90
2023-04-22T11:01:29.420Z,11.88
2023-04-22T11:04:33.442Z,8.55
2023-04-22T11:07:37.374Z,4.60
2023-04-22T11:10:44.658Z,7.00
2023-04-22T11:13:52.169Z,4.65
2023-04-22T11:16:56.701Z,2.97
2023-04-22T11:20:00.724Z,2.35
2023-04-22T11:23:04.954Z,2.63
2023-04-22T11:26:08.807Z,2.47
2023-04-22T11:29:14.041Z,2.90
2023-04-22T11:32:17.851Z,2.28
2023-04-22T11:35:23.549Z,2.30
2023-04-22T11:38:27.429Z,2.30
2023-04-22T11:41:31.624Z,2.10
2023-04-22T11:44:36.879Z,2.63
2023-04-22T11:47:42.006Z,3.30
2023-04-22T11:50:45.970Z,3.70
2023-04-22T11:53:52.460Z,2.40
2023-04-22T11:56:56.333Z,2.20
2023-04-22T12:00:01.704Z,2.57
2023-04-22T12:03:10.968Z,2.00
2023-04-22T12:06:18.261Z,2.27
2023-04-22T12:09:25.938Z,2.90
2023-04-22T12:12:30.324Z,2.40
2023-04-22T12:15:46.761Z,2.97
2023-04-22T12:18:52.091Z,2.37
2023-04-22T12:21:57.875Z,2.47
2023-04-22T12:25:02.217Z,2.50
2023-04-22T12:28:06.088Z,2.70
2023-04-22T12:31:12.472Z,2.67
2023-04-22T12:34:16.392Z,2.77
2023-04-22T12:37:20.733Z,2.73
2023-04-22T12:40:24.716Z,3.00
2023-04-22T12:43:28.581Z,2.70
2023-04-22T12:46:34.845Z,2.83
2023-04-22T12:49:40.050Z,3.10
2023-04-22T12:52:44.097Z,2.70
2023-04-22T12:55:48.586Z,2.70
2023-04-22T12:58:52.357Z,2.63
2023-04-22T13:01:57.565Z,2.70
2023-04-22T13:05:01.400Z,3.83
2023-04-22T13:08:07.493Z,3.90
2023-04-22T13:11:12.069Z,3.50
2023-04-22T13:14:15.771Z,3.60
2023-04-22T13:17:21.311Z,3.60
2023-04-22T13:20:25.028Z,3.07
2023-04-22T13:23:28.801Z,3.10
2023-04-22T13:26:32.668Z,3.03
2023-04-22T13:29:37.161Z,3.30
2023-04-22T13:32:42.472Z,2.70
2023-04-22T13:35:47.061Z,2.77
2023-04-22T13:38:51.476Z,2.40
2023-04-22T13:41:55.641Z,2.53
2023-04-22T13:44:59.328Z,2.60
2023-04-22T13:48:04.516Z,2.37
2023-04-22T13:51:08.282Z,2.57
2023-04-22T13:54:12.049Z,2.37
2023-04-22T13:57:15.820Z,2.60
2023-04-22T14:00:21.086Z,2.33
2023-04-22T14:03:26.463Z,2.30
2023-04-22T14:06:30.320Z,2.33
2023-04-22T14:09:34.730Z,2.20
2023-04-22T14:12:38.505Z,2.43
2023-04-22T14:15:42.186Z,2.57
2023-04-22T14:18:48.237Z,2.50
2023-04-22T14:21:51.971Z,2.60
2023-04-22T14:24:55.891Z,3.27
2023-04-22T14:27:59.701Z,2.60
2023-04-22T14:31:03.624Z,2.80
2023-04-22T14:34:08.973Z,2.80
2023-04-22T14:37:13.069Z,2.60
2023-04-22T14:40:16.972Z,2.65
2023-04-22T14:43:21.324Z,2.83
2023-04-22T14:46:25.158Z,3.10
2023-04-22T14:49:31.953Z,3.30
2023-04-22T14:52:36.910Z,2.63
2023-04-22T14:55:40.631Z,2.80
2023-04-22T14:58:44.501Z,2.42
2023-04-22T15:01:48.406Z,2.92
2023-04-22T15:04:53.696Z,2.90
2023-04-22T15:07:58.085Z,2.45
2023-04-22T15:11:01.834Z,2.67
2023-04-22T15:14:05.746Z,2.42
2023-04-22T15:17:10.025Z,2.75
2023-04-22T15:20:15.503Z,2.60
2023-04-22T15:23:19.417Z,2.65
2023-04-22T15:26:23.171Z,2.17
2023-04-22T15:29:28.655Z,2.40
2023-04-22T15:32:32.646Z,2.30
2023-04-22T15:35:37.969Z,2.22
2023-04-22T15:38:41.731Z,2.10
2023-04-22T15:41:46.146Z,2.60
2023-04-22T15:44:49.912Z,2.30
2023-04-22T15:47:54.942Z,2.17
2023-04-22T15:51:00.144Z,2.63
2023-04-22T15:54:04.178Z,2.65
2023-04-22T15:57:07.958Z,5.90
2023-04-22T16:00:14.210Z,3.93
2023-04-22T16:03:18.398Z,3.07
2023-04-22T16:06:24.357Z,2.35
2023-04-22T16:09:28.037Z,3.15
2023-04-22T16:12:33.521Z,3.83
2023-04-22T16:15:38.468Z,2.97
2023-04-22T16:18:44.269Z,2.67
2023-04-22T16:21:49.795Z,2.83
2023-04-22T16:24:53.573Z,3.07
2023-04-22T16:27:57.388Z,3.20
2023-04-22T16:31:01.582Z,3.37
2023-04-22T16:34:05.874Z,2.87
2023-04-22T16:37:11.123Z,2.70
2023-04-22T16:40:14.898Z,2.63
2023-04-22T16:43:18.663Z,2.50
2023-04-22T16:46:22.452Z,2.93
2023-04-22T16:49:26.363Z,3.20
2023-04-22T16:52:31.620Z,2.77
2023-04-22T16:55:37.007Z,3.10
2023-04-22T16:58:40.938Z,3.77
2023-04-22T17:01:45.077Z,3.00
2023-04-22T17:04:48.940Z,3.70
2023-04-22T17:07:54.081Z,3.40
2023-04-22T17:10:58.100Z,3.07
2023-04-22T17:14:01.823Z,3.13
2023-04-22T17:17:05.506Z,3.20
2023-04-22T17:20:10.071Z,3.27
2023-04-22T17:23:15.294Z,4.33
2023-04-22T17:26:19.000Z,4.00
2023-04-22T17:29:23.490Z,3.93
2023-04-22T17:32:27.460Z,4.03
2023-04-22T17:35:31.291Z,3.90
2023-04-22T17:38:36.553Z,3.33
2023-04-22T17:41:40.468Z,3.70
2023-04-22T17:44:44.191Z,4.60
2023-04-22T17:47:49.082Z,4.60
2023-04-22T17:50:52.983Z,4.47
2023-04-22T17:53:58.518Z,4.13
2023-04-22T17:57:02.464Z,5.17
2023-04-22T18:00:08.642Z,5.10
2023-04-22T18:03:12.740Z,5.20
2023-04-22T18:06:16.741Z,4.10
2023-04-22T18:09:22.003Z,4.43
2023-04-22T18:12:30.422Z,5.50
2023-04-22T18:15:34.546Z,5.27
2023-04-22T18:18:39.003Z,5.13
2023-04-22T18:21:56.762Z,5.57
2023-04-22T18:25:05.004Z,4.63
2023-04-22T18:28:08.820Z,4.70
2023-04-22T18:31:12.554Z,4.43
2023-04-22T18:34:16.836Z,4.70
2023-04-22T18:37:21.368Z,4.57
2023-04-22T18:40:26.611Z,5.30
2023-04-22T18:43:30.353Z,5.50
2023-04-22T18:46:34.100Z,5.30
2023-04-22T18:49:37.927Z,5.20
2023-04-22T18:52:41.791Z,5.30
2023-04-22T18:55:47.477Z,5.30
2023-04-22T18:58:51.687Z,5.70
2023-04-22T19:01:55.575Z,5.23
2023-04-22T19:04:59.515Z,4.53
2023-04-22T19:08:03.151Z,4.60
2023-04-22T19:11:08.469Z,4.67
2023-04-22T19:14:13.930Z,4.80
2023-04-22T19:17:17.814Z,5.47
2023-04-22T19:20:21.660Z,5.13
2023-04-22T19:23:25.692Z,4.87
2023-04-22T19:26:31.379Z,5.70
2023-04-22T19:29:35.163Z,7.10
2023-04-22T19:32:38.995Z,7.50
2023-04-22T19:35:42.740Z,6.97
2023-04-22T19:38:46.418Z,8.20
2023-04-22T19:41:51.697Z,5.57
2023-04-22T19:44:56.231Z,6.47
2023-04-22T19:48:00.509Z,6.07
2023-04-22T19:51:05.562Z,5.53
2023-04-22T19:54:12.128Z,6.00
2023-04-22T19:57:17.476Z,5.33
2023-04-22T20:00:22.152Z,5.23
2023-04-22T20:03:26.642Z,4.83
2023-04-22T20:06:31.882Z,5.20
2023-04-22T20:09:37.127Z,5.00
2023-04-22T20:12:42.483Z,5.27
2023-04-22T20:15:46.440Z,4.80
2023-04-22T20:18:50.763Z,4.80
2023-04-22T20:21:57.015Z,5.37
2023-04-22T20:25:04.021Z,5.73
2023-04-22T20:28:10.958Z,5.57
2023-04-22T20:31:16.952Z,6.30
2023-04-22T20:34:21.429Z,4.90
2023-04-22T20:37:27.265Z,5.70
2023-04-22T20:40:31.485Z,5.40
2023-04-22T20:43:37.128Z,5.10
2023-04-22T20:46:40.904Z,5.90
2023-04-22T20:49:45.027Z,4.93
2023-04-22T20:52:49.312Z,6.10
2023-04-22T20:55:53.129Z,5.03
2023-04-22T20:58:58.406Z,5.23
2023-04-22T21:02:04.489Z,4.93
2023-04-22T21:05:11.431Z,6.23
2023-04-22T21:08:23.402Z,4.90
2023-04-22T21:11:27.933Z,4.67
2023-04-22T21:14:33.644Z,5.53
2023-04-22T21:17:44.657Z,5.43
2023-04-22T21:20:52.081Z,5.50
2023-04-22T21:23:57.061Z,5.47
2023-04-22T21:27:01.617Z,5.70
2023-04-22T21:30:08.399Z,5.40
2023-04-22T21:33:12.390Z,5.30
2023-04-22T21:36:16.552Z,5.50
2023-04-22T21:39:20.223Z,5.47
2023-04-22T21:42:24.088Z,4.90
2023-04-22T21:45:29.208Z,5.37
2023-04-22T21:48:33.000Z,6.13
2023-04-22T21:51:36.971Z,5.77
2023-04-22T21:54:41.191Z,6.23
2023-04-22T21:57:45.210Z,6.23
2023-04-22T22:00:50.526Z,6.60
2023-04-22T22:03:54.764Z,6.83
2023-04-22T22:06:58.861Z,6.40
2023-04-22T22:10:02.601Z,6.20
2023-04-22T22:13:06.321Z,6.47
2023-04-22T22:16:11.734Z,6.90
2023-04-22T22:19:15.616Z,6.77
2023-04-22T22:22:19.280Z,6.80
2023-04-22T22:25:22.982Z,6.60
2023-04-22T22:28:26.734Z,6.33
2023-04-22T22:31:31.805Z,7.47
2023-04-22T22:34:35.760Z,7.50
2023-04-22T22:37:39.462Z,7.63
2023-04-22T22:40:43.153Z,7.60
2023-04-22T22:43:46.880Z,6.80
2023-04-22T22:46:52.024Z,7.17
2023-04-22T22:49:55.729Z,7.23
2023-04-22T22:52:59.733Z,6.53
2023-04-22T22:56:03.729Z,6.83
2023-04-22T22:59:07.330Z,6.63
2023-04-22T23:02:14.433Z,5.43
2023-04-22T23:05:18.539Z,6.67
2023-04-22T23:08:22.286Z,6.70
2023-04-22T23:11:26.191Z,6.90
2023-04-22T23:14:30.350Z,6.37
2023-04-22T23:17:35.451Z,7.20
2023-04-22T23:20:39.738Z,6.93
2023-04-22T23:23:43.732Z,7.70
2023-04-22T23:26:47.974Z,7.93
2023-04-22T23:29:52.231Z,7.70
2023-04-22T23:32:59.002Z,7.80
2023-04-22T23:36:06.272Z,8.00
2023-04-22T23:39:10.004Z,7.80
2023-04-22T23:42:13.759Z,7.57
2023-04-22T23:45:17.645Z,6.57
2023-04-22T23:48:22.789Z,7.13
2023-04-22T23:51:27.795Z,7.30
2023-04-22T23:54:31.949Z,7.37
2023-04-22T23:57:36.142Z,7.27
